Time;durP1;ratioP1;P1;durP2;ratioP2;P2;SDS_P1;SDS_P2;PMS_P1;PMS_P2;Temp;Humidity;BMP_temperature;BMP_pressure;BME280_temperature;BME280_humidity;BME280_pressure;Samples;Min_cycle;Max_cycle;Signal;HPM_P1;HPM_P2
2020/12/06 00:01:37;;;;;;;5.60;4.53;;;21.70;33.20;;;;;;5032814;28;20867;-59
2020/12/06 00:04:10;;;;;;;5.22;4.72;;;21.70;33.20;;;;;;5033686;28;20399;-59
2020/12/06 00:06:37;;;;;;;5.28;4.55;;;21.70;33.20;;;;;;5033780;28;20883;-60
2020/12/06 00:09:06;;;;;;;5.82;4.70;;;21.70;33.10;;;;;;5032201;28;20477;-60
2020/12/06 00:11:32;;;;;;;5.38;4.72;;;21.70;33.00;;;;;;5032973;28;20391;-59
2020/12/06 00:13:57;;;;;;;5.70;4.73;;;21.60;32.90;;;;;;5033591;28;20399;-60
2020/12/06 00:16:23;;;;;;;5.88;5.00;;;21.70;32.90;;;;;;5033559;28;20398;-60
2020/12/06 00:18:48;;;;;;;5.50;4.83;;;21.60;32.80;;;;;;5032867;28;20453;-59
2020/12/06 00:21:16;;;;;;;5.88;4.63;;;21.60;32.90;;;;;;5031526;28;20461;-60
2020/12/06 00:23:42;;;;;;;4.93;4.43;;;21.60;32.90;;;;;;5033022;28;20968;-59
2020/12/06 00:26:09;;;;;;;4.75;4.25;;;21.60;32.80;;;;;;5033111;28;20407;-59
2020/12/06 00:28:35;;;;;;;5.70;4.63;;;21.60;32.80;;;;;;5032854;28;20411;-59
2020/12/06 00:31:00;;;;;;;5.63;4.50;;;21.60;33.20;;;;;;5033321;28;20459;-61
2020/12/06 00:33:26;;;;;;;5.10;4.30;;;21.60;32.60;;;;;;5032876;28;20433;-59
2020/12/06 00:35:53;;;;;;;5.43;4.40;;;21.60;32.60;;;;;;5032361;28;20486;-70
2020/12/06 00:38:18;;;;;;;5.55;4.30;;;21.60;32.60;;;;;;5031259;28;20395;-60
2020/12/06 00:40:45;;;;;;;4.97;4.33;;;21.60;32.80;;;;;;5032184;28;20426;-69
2020/12/06 00:43:10;;;;;;;5.10;4.57;;;21.60;33.10;;;;;;5032785;28;20452;-60
2020/12/06 00:45:37;;;;;;;6.00;4.47;;;21.70;33.10;;;;;;5032525;28;20391;-70
2020/12/06 00:48:03;;;;;;;5.55;4.10;;;21.70;33.20;;;;;;5030096;28;20399;-59
2020/12/06 00:50:29;;;;;;;5.63;3.80;;;21.70;33.20;;;;;;5031539;28;20426;-59
2020/12/06 00:52:54;;;;;;;4.80;4.23;;;21.70;33.20;;;;;;5032265;28;20422;-61
2020/12/06 00:55:20;;;;;;;5.40;3.85;;;21.70;33.20;;;;;;5032400;28;20751;-59
2020/12/06 00:57:46;;;;;;;4.73;4.23;;;21.70;33.30;;;;;;5031615;28;20895;-59
2020/12/06 01:00:12;;;;;;;5.22;4.28;;;21.70;33.30;;;;;;5032256;28;20411;-60
2020/12/06 01:02:37;;;;;;;5.47;4.30;;;21.70;33.20;;;;;;5029985;28;20403;-60
2020/12/06 01:05:04;;;;;;;4.88;4.22;;;21.60;33.30;;;;;;5028955;28;20534;-60
2020/12/06 01:07:35;;;;;;;4.60;4.07;;;21.60;33.10;;;;;;5030654;28;20384;-60
2020/12/06 01:10:00;;;;;;;4.40;4.00;;;21.60;32.90;;;;;;5031321;28;20427;-59
2020/12/06 01:12:26;;;;;;;4.95;4.22;;;21.50;32.90;;;;;;5031555;28;20486;-59
2020/12/06 01:14:52;;;;;;;4.77;4.20;;;21.50;32.90;;;;;;5031784;28;20407;-59
2020/12/06 01:17:17;;;;;;;4.70;4.20;;;21.50;32.90;;;;;;5031608;28;20909;-59
2020/12/06 01:19:43;;;;;;;5.00;4.30;;;21.50;32.80;;;;;;5030989;28;20407;-63
2020/12/06 01:22:08;;;;;;;4.80;4.20;;;21.50;32.70;;;;;;5031315;28;20399;-59
2020/12/06 01:24:34;;;;;;;4.82;3.97;;;21.50;32.70;;;;;;5031034;28;20399;-59
2020/12/06 01:27:00;;;;;;;5.20;4.40;;;21.50;32.70;;;;;;5031751;28;20445;-68
2020/12/06 01:29:25;;;;;;;4.75;4.25;;;21.50;32.70;;;;;;5031358;28;20423;-61
2020/12/06 01:31:51;;;;;;;4.60;4.10;;;21.50;32.80;;;;;;5031129;28;20421;-59
2020/12/06 01:34:17;;;;;;;4.75;4.00;;;21.50;32.70;;;;;;5031321;28;20417;-59
2020/12/06 01:36:43;;;;;;;4.30;3.70;;;21.50;32.70;;;;;;5031419;28;20403;-59
2020/12/06 01:39:09;;;;;;;5.05;4.35;;;21.50;32.80;;;;;;5031406;28;20394;-59
2020/12/06 01:41:35;;;;;;;5.40;4.30;;;21.50;32.70;;;;;;5030751;28;20763;-59
2020/12/06 01:44:03;;;;;;;4.70;4.18;;;21.40;32.70;;;;;;5031442;28;20394;-59
2020/12/06 01:46:30;;;;;;;5.15;4.28;;;21.40;32.60;;;;;;5031963;28;20407;-59
2020/12/06 01:48:55;;;;;;;4.72;4.15;;;21.40;32.60;;;;;;5031333;28;20399;-59
2020/12/06 01:51:22;;;;;;;4.45;3.63;;;21.50;32.60;;;;;;5031306;28;20953;-58
2020/12/06 01:53:50;;;;;;;4.53;4.03;;;21.40;32.50;;;;;;5031139;28;20469;-59
2020/12/06 01:56:16;;;;;;;6.00;4.30;;;21.40;32.50;;;;;;5031767;28;20903;-60
2020/12/06 01:58:42;;;;;;;5.20;3.95;;;21.40;32.50;;;;;;5031353;28;20399;-60
2020/12/06 02:01:09;;;;;;;4.77;4.03;;;21.40;32.40;;;;;;5030972;28;20418;-59
2020/12/06 02:03:38;;;;;;;5.18;4.25;;;21.40;32.60;;;;;;5030851;28;20458;-60
2020/12/06 02:06:04;;;;;;;4.35;3.80;;;21.30;32.60;;;;;;5031299;28;20438;-59
2020/12/06 02:08:30;;;;;;;4.22;3.80;;;21.40;32.70;;;;;;5031289;28;20427;-59
2020/12/06 02:10:56;;;;;;;4.45;3.78;;;21.50;32.70;;;;;;5030620;28;20447;-59
2020/12/06 02:13:22;;;;;;;4.30;3.90;;;21.50;32.80;;;;;;5031569;28;20517;-59
2020/12/06 02:15:48;;;;;;;4.50;3.97;;;21.40;32.80;;;;;;5031090;28;20808;-59
2020/12/06 02:18:14;;;;;;;5.05;4.00;;;21.40;33.10;;;;;;5030831;28;20444;-59
2020/12/06 02:20:40;;;;;;;6.27;4.10;;;21.30;33.20;;;;;;5030316;28;20879;-59
2020/12/06 02:23:06;;;;;;;5.18;3.72;;;21.40;33.30;;;;;;5031150;28;20426;-59
2020/12/06 02:25:36;;;;;;;4.78;3.85;;;21.30;33.30;;;;;;5030888;28;21059;-59
2020/12/06 02:28:03;;;;;;;5.05;3.85;;;21.30;33.30;;;;;;5031217;28;20406;-59
2020/12/06 02:30:29;;;;;;;4.53;4.10;;;21.30;33.20;;;;;;5030686;28;20419;-59
2020/12/06 02:32:55;;;;;;;4.38;3.80;;;21.30;33.10;;;;;;5030838;28;20409;-59
2020/12/06 02:35:21;;;;;;;4.60;3.67;;;21.40;33.20;;;;;;5031245;28;20395;-59
2020/12/06 02:37:47;;;;;;;5.88;4.20;;;21.30;33.10;;;;;;5030603;28;20470;-60
2020/12/06 02:40:12;;;;;;;5.18;3.78;;;21.30;33.00;;;;;;5031284;28;20391;-59
2020/12/06 02:42:38;;;;;;;4.23;3.70;;;21.30;33.00;;;;;;5030810;28;20490;-59
2020/12/06 02:45:04;;;;;;;4.57;3.90;;;21.30;33.00;;;;;;5031120;28;20494;-59
2020/12/06 02:47:30;;;;;;;4.78;3.90;;;21.30;33.00;;;;;;5030512;28;20398;-60
2020/12/06 02:49:55;;;;;;;4.50;3.87;;;21.30;33.00;;;;;;5030523;28;20890;-59
2020/12/06 02:52:21;;;;;;;4.60;4.00;;;21.30;32.90;;;;;;5030000;28;20387;-59
2020/12/06 02:54:47;;;;;;;4.15;3.72;;;21.30;32.90;;;;;;5029949;28;20750;-59
2020/12/06 02:57:13;;;;;;;4.47;4.00;;;21.30;32.80;;;;;;5031191;28;20387;-59
2020/12/06 02:59:38;;;;;;;4.37;3.73;;;21.30;32.90;;;;;;5030397;28;20949;-59
2020/12/06 03:02:04;;;;;;;4.95;4.00;;;21.30;32.80;;;;;;5030052;28;20402;-59
2020/12/06 03:04:29;;;;;;;4.60;3.90;;;21.30;32.80;;;;;;5045739;28;20411;-59
2020/12/06 03:06:55;;;;;;;4.80;4.07;;;21.20;32.80;;;;;;5031075;28;20390;-59
2020/12/06 03:09:21;;;;;;;4.53;4.07;;;21.20;32.70;;;;;;5030895;28;20460;-59
2020/12/06 03:11:47;;;;;;;4.30;3.90;;;21.20;32.80;;;;;;5031277;28;20485;-59
2020/12/06 03:14:12;;;;;;;4.40;3.97;;;21.20;32.80;;;;;;5034600;28;20383;-59
2020/12/06 03:16:38;;;;;;;4.30;3.90;;;21.20;32.70;;;;;;5034680;28;20403;-59
2020/12/06 03:19:04;;;;;;;4.47;4.07;;;21.20;32.70;;;;;;5034588;28;20838;-59
2020/12/06 03:21:30;;;;;;;4.60;4.10;;;21.20;32.70;;;;;;5034293;28;20472;-59
2020/12/06 03:23:56;;;;;;;4.38;3.90;;;21.20;32.70;;;;;;5033612;28;20411;-59
2020/12/06 03:26:21;;;;;;;4.53;3.83;;;21.20;32.60;;;;;;5034126;28;20395;-59
2020/12/06 03:28:47;;;;;;;4.30;3.90;;;21.20;32.60;;;;;;5034221;28;20427;-59
2020/12/06 03:31:12;;;;;;;4.30;3.90;;;21.20;32.60;;;;;;5033889;28;20507;-59
2020/12/06 03:33:38;;;;;;;4.25;3.85;;;21.20;32.60;;;;;;5033815;28;20453;-59
2020/12/06 03:36:04;;;;;;;4.10;3.70;;;21.20;32.60;;;;;;5033973;28;20418;-59
2020/12/06 03:38:29;;;;;;;4.22;3.83;;;21.20;32.60;;;;;;5034334;28;20382;-59
2020/12/06 03:40:55;;;;;;;4.40;3.70;;;21.20;32.50;;;;;;5033987;28;20415;-59
2020/12/06 03:43:21;;;;;;;4.35;3.88;;;21.10;32.50;;;;;;5033824;28;20448;-59
2020/12/06 03:45:46;;;;;;;4.40;4.00;;;21.10;33.00;;;;;;5033710;28;20449;-59
2020/12/06 03:48:12;;;;;;;4.40;4.00;;;21.20;32.50;;;;;;5034077;28;20403;-59
2020/12/06 03:50:37;;;;;;;4.73;4.00;;;21.20;32.50;;;;;;5032417;28;20426;-59
2020/12/06 03:53:03;;;;;;;4.30;3.90;;;21.10;32.40;;;;;;5033893;28;20441;-59
2020/12/06 03:55:29;;;;;;;4.33;3.80;;;21.20;32.40;;;;;;5034036;28;20406;-59
2020/12/06 03:57:55;;;;;;;4.05;3.65;;;21.20;32.40;;;;;;5032719;28;20429;-59
2020/12/06 04:00:21;;;;;;;4.20;3.80;;;21.20;32.30;;;;;;5033399;28;20406;-59
2020/12/06 04:02:50;;;;;;;4.70;4.00;;;21.20;32.30;;;;;;5032227;28;20767;-59
2020/12/06 04:05:20;;;;;;;3.90;3.50;;;21.20;32.30;;;;;;5033530;28;20415;-60
2020/12/06 04:07:47;;;;;;;4.30;3.83;;;21.20;32.30;;;;;;5033234;28;20513;-59
2020/12/06 04:10:13;;;;;;;4.57;4.03;;;21.20;32.30;;;;;;5033606;28;20426;-59
2020/12/06 04:12:39;;;;;;;4.40;4.00;;;21.20;32.20;;;;;;5033192;28;20471;-60
2020/12/06 04:15:05;;;;;;;4.20;3.70;;;21.20;32.20;;;;;;5033678;28;20391;-59
2020/12/06 04:17:31;;;;;;;4.25;3.60;;;21.20;32.10;;;;;;5033651;28;20387;-60
2020/12/06 04:19:56;;;;;;;4.10;3.70;;;21.20;32.20;;;;;;5032278;28;20974;-62
2020/12/06 04:22:22;;;;;;;4.10;3.70;;;21.20;32.20;;;;;;5033186;28;20383;-60
2020/12/06 04:24:48;;;;;;;4.17;3.67;;;21.20;32.20;;;;;;5033567;28;20755;-59
2020/12/06 04:27:13;;;;;;;4.40;4.00;;;21.20;32.10;;;;;;5033562;28;20380;-60
2020/12/06 04:29:39;;;;;;;4.10;3.70;;;21.10;32.10;;;;;;5032636;28;20879;-59
2020/12/06 04:32:05;;;;;;;4.10;3.70;;;21.10;32.10;;;;;;5032664;28;20407;-59
2020/12/06 04:34:30;;;;;;;4.40;3.60;;;21.10;32.10;;;;;;5033372;28;20387;-60
2020/12/06 04:36:56;;;;;;;4.00;3.60;;;21.10;32.20;;;;;;5033373;28;20410;-59
2020/12/06 04:39:21;;;;;;;4.17;3.77;;;21.20;32.20;;;;;;5032838;28;20411;-65
2020/12/06 04:41:47;;;;;;;4.00;3.60;;;21.10;32.20;;;;;;5032026;28;20411;-59
2020/12/06 04:44:13;;;;;;;4.10;3.70;;;21.10;32.20;;;;;;5033319;28;20391;-59
2020/12/06 04:46:39;;;;;;;3.90;3.50;;;21.10;32.20;;;;;;5033101;28;20391;-60
2020/12/06 04:49:05;;;;;;;4.15;3.70;;;21.10;32.20;;;;;;5032752;28;20399;-59
2020/12/06 04:51:41;;;;;;;3.92;3.53;;;21.10;32.20;;;;;;5032954;28;20399;-60
2020/12/06 04:54:07;;;;;;;3.88;3.47;;;21.10;32.10;;;;;;5032967;28;20758;-61
2020/12/06 04:56:34;;;;;;;3.72;3.33;;;21.10;32.10;;;;;;5032936;28;20448;-62
2020/12/06 04:59:03;;;;;;;3.60;3.30;;;21.10;32.10;;;;;;5032434;28;20399;-60
2020/12/06 05:01:37;;;;;;;3.50;3.20;;;21.20;32.10;;;;;;5032565;28;20427;-59
2020/12/06 05:04:11;;;;;;;4.13;3.60;;;21.10;31.90;;;;;;5032645;28;20395;-60
2020/12/06 05:06:41;;;;;;;4.20;3.40;;;21.20;32.00;;;;;;5032184;28;20901;-60
2020/12/06 05:09:09;;;;;;;4.10;3.70;;;21.10;31.90;;;;;;5031769;28;20481;-60
2020/12/06 05:11:35;;;;;;;3.60;3.30;;;21.10;31.90;;;;;;5032507;28;20402;-60
2020/12/06 05:14:01;;;;;;;3.65;3.35;;;21.10;31.90;;;;;;5032258;28;20395;-60
2020/12/06 05:16:29;;;;;;;3.92;3.55;;;21.10;31.90;;;;;;5032439;28;20442;-59
2020/12/06 05:18:54;;;;;;;4.07;3.67;;;21.10;31.90;;;;;;5031771;28;20399;-59
2020/12/06 05:21:33;;;;;;;4.15;3.53;;;21.10;31.90;;;;;;5032284;28;20469;-59
2020/12/06 05:23:59;;;;;;;3.97;3.40;;;21.10;31.90;;;;;;5032005;28;20387;-60
2020/12/06 05:26:26;;;;;;;3.83;3.42;;;21.10;31.90;;;;;;5032604;28;20410;-60
2020/12/06 05:28:52;;;;;;;3.67;3.28;;;21.10;32.00;;;;;;5031730;28;20399;-59
2020/12/06 05:31:18;;;;;;;4.70;3.60;;;21.10;32.00;;;;;;5031428;28;20824;-58
2020/12/06 05:33:44;;;;;;;3.88;3.40;;;21.10;31.90;;;;;;5031387;28;20383;-59
2020/12/06 05:36:11;;;;;;;3.50;3.20;;;21.10;32.00;;;;;;5032034;28;20778;-59
2020/12/06 05:38:37;;;;;;;3.60;3.30;;;21.10;32.00;;;;;;5032078;28;20382;-59
2020/12/06 05:41:07;;;;;;;3.50;3.20;;;21.10;31.90;;;;;;5031776;28;20403;-59
2020/12/06 05:43:33;;;;;;;3.88;3.30;;;21.10;32.00;;;;;;5032078;28;20383;-60
2020/12/06 05:46:10;;;;;;;3.60;3.30;;;21.00;31.90;;;;;;5031554;28;20475;-59
2020/12/06 05:48:37;;;;;;;3.67;3.27;;;21.00;31.90;;;;;;5032023;28;20402;-59
2020/12/06 05:51:04;;;;;;;3.83;3.30;;;21.10;31.90;;;;;;5031462;28;20429;-60
2020/12/06 05:53:31;;;;;;;3.90;3.50;;;21.00;31.90;;;;;;5031869;28;20383;-59
2020/12/06 05:56:15;;;;;;;3.70;3.30;;;21.00;31.90;;;;;;5031503;28;20485;-59
2020/12/06 05:58:43;;;;;;;3.90;3.60;;;21.00;31.90;;;;;;5031846;28;20396;-59
2020/12/06 06:01:13;;;;;;;3.40;3.10;;;21.00;31.90;;;;;;5031429;28;20414;-60
2020/12/06 06:03:53;;;;;;;3.90;3.45;;;21.00;31.90;;;;;;5031768;28;20430;-59
2020/12/06 06:06:25;;;;;;;3.95;3.50;;;21.00;31.90;;;;;;5031259;28;20399;-59
2020/12/06 06:08:57;;;;;;;3.50;3.20;;;21.10;31.90;;;;;;5031572;28;20387;-59
2020/12/06 06:11:28;;;;;;;3.53;3.15;;;21.00;31.90;;;;;;5031284;28;20422;-59
2020/12/06 06:13:59;;;;;;;3.50;3.13;;;21.00;31.90;;;;;;5031357;28;20423;-59
2020/12/06 06:16:27;;;;;;;3.67;3.35;;;21.00;31.90;;;;;;5031550;28;20846;-59
2020/12/06 06:18:54;;;;;;;3.60;3.30;;;21.00;31.80;;;;;;5031375;28;20399;-59
2020/12/06 06:21:29;;;;;;;3.60;3.25;;;21.00;31.80;;;;;;5030627;28;20403;-59
2020/12/06 06:23:58;;;;;;;3.53;3.22;;;21.00;31.80;;;;;;5030605;28;20937;-59
2020/12/06 06:26:27;;;;;;;4.70;3.50;;;21.00;31.80;;;;;;5030508;28;20434;-59
2020/12/06 06:28:53;;;;;;;4.10;3.70;;;21.00;31.90;;;;;;5031171;28;20465;-60
2020/12/06 06:31:20;;;;;;;4.10;3.70;;;21.00;32.00;;;;;;5031349;28;20398;-58
2020/12/06 06:33:50;;;;;;;4.38;3.67;;;21.00;32.50;;;;;;5031020;28;20440;-59
2020/12/06 06:36:20;;;;;;;4.93;3.67;;;21.00;32.90;;;;;;5030859;28;22139;-59
2020/12/06 06:38:46;;;;;;;4.25;3.85;;;21.00;32.90;;;;;;4964818;28;20400;-59
2020/12/06 06:41:12;;;;;;;4.25;3.85;;;21.00;32.80;;;;;;5023962;28;20792;-59
2020/12/06 06:43:42;;;;;;;5.03;3.60;;;21.10;32.80;;;;;;5011584;28;20411;-59
2020/12/06 06:46:14;;;;;;;4.37;3.43;;;21.10;32.80;;;;;;5031198;28;20479;-59
2020/12/06 06:48:40;;;;;;;4.18;3.78;;;21.10;33.10;;;;;;5034108;28;20482;-59
2020/12/06 06:51:07;;;;;;;4.20;3.80;;;21.20;33.20;;;;;;5035259;28;20894;-60
2020/12/06 06:53:33;;;;;;;4.37;3.97;;;21.20;32.80;;;;;;5020687;28;20399;-61
2020/12/06 06:56:01;;;;;;;4.63;3.85;;;21.20;32.80;;;;;;5016427;28;20485;-59
2020/12/06 06:58:30;;;;;;;4.40;3.90;;;21.10;32.80;;;;;;5035173;28;20379;-60
2020/12/06 07:01:18;;;;;;;4.18;3.78;;;21.10;33.00;;;;;;5012809;28;20478;-59
2020/12/06 07:03:51;;;;;;;4.40;4.00;;;21.10;32.40;;;;;;4967219;28;20411;-59
2020/12/06 07:06:52;;;;;;;4.75;4.25;;;21.10;32.60;;;;;;5016146;28;20407;-59
2020/12/06 07:09:21;;;;;;;4.72;4.30;;;21.00;32.10;;;;;;5034827;28;20885;-61
2020/12/06 07:11:48;;;;;;;4.50;4.05;;;20.90;32.00;;;;;;5021902;28;20903;-59
2020/12/06 07:14:13;;;;;;;4.90;4.13;;;20.90;32.00;;;;;;5015075;28;20458;-60
2020/12/06 07:16:39;;;;;;;4.77;4.27;;;20.80;31.90;;;;;;5001828;28;20438;-59
2020/12/06 07:19:05;;;;;;;4.88;4.20;;;20.80;32.30;;;;;;4995355;28;20391;-59
2020/12/06 07:21:32;;;;;;;5.15;4.20;;;20.80;32.30;;;;;;4995087;28;20399;-59
2020/12/06 07:23:58;;;;;;;5.65;4.40;;;20.70;32.10;;;;;;4994607;28;20422;-59
2020/12/06 07:26:25;;;;;;;5.40;4.15;;;20.70;32.10;;;;;;5008746;28;20445;-59
2020/12/06 07:28:50;;;;;;;4.40;4.00;;;20.70;32.20;;;;;;5034541;28;20407;-59
2020/12/06 07:31:17;;;;;;;4.40;4.00;;;20.70;32.20;;;;;;5021357;28;20746;-59
2020/12/06 07:33:43;;;;;;;4.95;4.07;;;20.70;32.20;;;;;;5014359;28;20420;-60
2020/12/06 07:36:09;;;;;;;6.57;4.00;;;20.70;32.10;;;;;;5022598;28;20432;-59
2020/12/06 07:38:35;;;;;;;5.32;4.35;;;20.60;32.00;;;;;;5014308;28;20381;-59
2020/12/06 07:41:02;;;;;;;5.65;4.25;;;20.60;32.10;;;;;;5014385;28;20401;-60
2020/12/06 07:43:32;;;;;;;8.18;4.85;;;20.60;32.40;;;;;;5029634;28;20397;-60
2020/12/06 07:46:10;;;;;;;8.32;4.60;;;20.60;32.40;;;;;;5014765;28;20384;-60
2020/12/06 07:48:36;;;;;;;6.22;4.43;;;20.60;32.30;;;;;;5034036;28;20930;-59
2020/12/06 07:51:01;;;;;;;6.40;4.30;;;20.60;32.40;;;;;;5034048;28;20455;-59
2020/12/06 07:53:27;;;;;;;6.78;4.70;;;20.50;32.20;;;;;;5033672;28;20394;-59
2020/12/06 07:56:05;;;;;;;5.20;4.43;;;20.50;32.10;;;;;;5013927;28;20408;-59
2020/12/06 07:58:35;;;;;;;5.93;4.40;;;20.50;32.20;;;;;;5014465;28;20400;-60
2020/12/06 08:01:01;;;;;;;5.78;4.18;;;20.50;32.20;;;;;;5013827;28;20401;-61
2020/12/06 08:03:27;;;;;;;5.40;4.43;;;20.60;33.00;;;;;;5030335;28;20402;-60
2020/12/06 08:05:52;;;;;;;7.18;4.47;;;20.50;32.60;;;;;;5032791;28;20482;-59
2020/12/06 08:08:20;;;;;;;9.55;4.22;;;20.60;33.20;;;;;;5014318;28;20447;-58
2020/12/06 08:10:56;;;;;;;8.98;4.53;;;20.60;33.50;;;;;;5011732;28;20471;-59
2020/12/06 08:13:22;;;;;;;7.85;4.30;;;20.60;33.70;;;;;;5018168;28;20749;-59
2020/12/06 08:15:47;;;;;;;10.05;4.78;;;20.60;34.10;;;;;;5010421;28;20409;-59
2020/12/06 08:18:15;;;;;;;7.07;4.07;;;20.70;33.90;;;;;;5013444;28;20789;-59
2020/12/06 08:20:54;;;;;;;6.75;4.35;;;20.70;34.00;;;;;;5013691;28;20475;-59
2020/12/06 08:23:34;;;;;;;10.63;4.30;;;20.80;34.20;;;;;;5013586;28;20872;-59
2020/12/06 08:25:59;;;;;;;6.97;4.32;;;20.80;34.90;;;;;;5011237;28;20408;-59
2020/12/06 08:28:25;;;;;;;10.05;4.30;;;20.70;34.20;;;;;;5014002;28;20405;-59
2020/12/06 08:30:51;;;;;;;7.10;4.03;;;20.80;34.40;;;;;;5013060;28;20784;-59
2020/12/06 08:33:28;;;;;;;10.10;4.53;;;20.90;33.90;;;;;;5013498;28;20397;-59
2020/12/06 08:35:58;;;;;;;7.00;3.90;;;20.90;35.60;;;;;;5012867;28;20404;-59
2020/12/06 08:38:24;;;;;;;8.13;3.93;;;20.90;34.70;;;;;;5013805;28;20397;-59
2020/12/06 08:41:05;;;;;;;8.30;4.13;;;21.00;35.90;;;;;;5013527;28;20495;-59
2020/12/06 08:43:48;;;;;;;8.73;4.38;;;21.00;35.50;;;;;;5013478;28;20750;-59
2020/12/06 08:46:18;;;;;;;6.40;4.00;;;21.10;34.70;;;;;;5026902;28;20434;-60
2020/12/06 08:48:44;;;;;;;8.55;3.97;;;21.00;35.90;;;;;;5033348;28;20426;-59
2020/12/06 08:51:35;;;;;;;9.90;4.07;;;21.00;35.80;;;;;;5032791;28;20426;-59
2020/12/06 08:54:05;;;;;;;10.02;3.90;;;21.00;36.20;;;;;;5032126;28;20407;-59
2020/12/06 08:56:38;;;;;;;9.48;4.18;;;21.10;36.30;;;;;;5031792;28;20790;-59
2020/12/06 08:59:04;;;;;;;9.52;3.58;;;21.10;35.90;;;;;;5018631;28;20965;-59
2020/12/06 09:01:29;;;;;;;11.88;3.50;;;21.10;35.70;;;;;;5012759;28;20388;-59
2020/12/06 09:03:55;;;;;;;8.60;3.80;;;21.00;34.90;;;;;;5012348;28;20915;-59
2020/12/06 09:06:21;;;;;;;9.90;3.78;;;20.90;35.10;;;;;;5012915;28;20756;-59
2020/12/06 09:08:46;;;;;;;5.17;3.53;;;20.90;34.60;;;;;;5012144;28;20507;-59
2020/12/06 09:11:14;;;;;;;7.15;3.30;;;20.90;35.10;;;;;;5012324;28;20445;-59
2020/12/06 09:13:39;;;;;;;8.27;3.55;;;20.90;34.30;;;;;;5012905;28;20450;-59
2020/12/06 09:16:05;;;;;;;6.78;3.40;;;21.00;34.50;;;;;;5012429;28;20397;-59
2020/12/06 09:18:30;;;;;;;6.50;3.27;;;21.00;34.50;;;;;;5012774;28;20395;-59
2020/12/06 09:20:56;;;;;;;7.43;3.40;;;21.00;34.40;;;;;;5012891;28;20411;-59
2020/12/06 09:23:21;;;;;;;7.40;3.60;;;21.00;34.30;;;;;;5012770;28;20912;-58
2020/12/06 09:25:47;;;;;;;4.82;3.20;;;21.00;34.30;;;;;;5012633;28;20393;-59
2020/12/06 09:28:13;;;;;;;5.50;3.60;;;21.00;34.20;;;;;;5011818;28;20392;-59
2020/12/06 09:30:40;;;;;;;5.22;3.15;;;21.00;34.20;;;;;;5012493;28;20428;-59
2020/12/06 09:33:05;;;;;;;7.22;3.55;;;21.00;34.50;;;;;;5012650;28;20385;-59
2020/12/06 09:35:31;;;;;;;5.10;3.33;;;20.90;34.60;;;;;;5012138;28;20405;-59
2020/12/06 09:37:57;;;;;;;6.30;3.50;;;20.90;34.60;;;;;;5012119;28;20869;-59
2020/12/06 09:40:22;;;;;;;6.20;3.38;;;20.90;34.60;;;;;;5012264;28;20396;-59
2020/12/06 09:42:48;;;;;;;5.30;3.17;;;20.90;34.50;;;;;;5012404;28;20431;-59
2020/12/06 09:45:13;;;;;;;3.63;2.92;;;20.90;34.50;;;;;;5012002;28;20456;-59
2020/12/06 09:47:39;;;;;;;5.13;3.20;;;20.90;34.60;;;;;;5012218;28;20470;-59
2020/12/06 09:50:05;;;;;;;5.68;3.10;;;20.80;34.60;;;;;;5007133;28;20421;-59
2020/12/06 09:52:31;;;;;;;6.17;2.90;;;20.80;34.80;;;;;;5010588;28;20393;-59
2020/12/06 09:54:57;;;;;;;4.55;2.70;;;20.80;34.90;;;;;;5027474;28;20458;-59
2020/12/06 09:57:25;;;;;;;6.65;2.95;;;20.80;34.80;;;;;;5011255;28;20425;-59
2020/12/06 09:59:51;;;;;;;6.65;2.85;;;20.80;34.80;;;;;;5011901;28;20401;-59
2020/12/06 10:02:16;;;;;;;11.88;3.13;;;20.80;34.80;;;;;;5011023;28;20408;-59
2020/12/06 10:04:42;;;;;;;4.30;2.70;;;20.80;34.80;;;;;;5010324;28;20400;-59
2020/12/06 10:07:08;;;;;;;4.82;2.53;;;20.80;34.70;;;;;;5003945;28;20400;-59
2020/12/06 10:09:34;;;;;;;3.50;2.30;;;20.70;34.80;;;;;;5010057;28;20919;-60
2020/12/06 10:11:59;;;;;;;4.90;2.60;;;20.70;34.90;;;;;;5003316;28;20881;-59
2020/12/06 10:14:25;;;;;;;5.17;2.70;;;20.70;34.60;;;;;;5010072;28;20440;-59
2020/12/06 10:16:51;;;;;;;5.00;2.67;;;20.70;34.80;;;;;;5010611;28;20416;-59
2020/12/06 10:19:16;;;;;;;4.27;2.30;;;20.70;34.90;;;;;;5010513;28;20400;-59
2020/12/06 10:21:42;;;;;;;3.20;2.40;;;20.70;34.80;;;;;;5009620;28;20475;-62
2020/12/06 10:24:08;;;;;;;4.57;2.58;;;20.80;34.90;;;;;;5009725;28;20396;-61
2020/12/06 10:26:33;;;;;;;3.13;2.00;;;20.80;34.90;;;;;;5009844;28;20393;-59
2020/12/06 10:29:00;;;;;;;4.30;2.15;;;20.80;34.80;;;;;;5008181;28;20784;-59
2020/12/06 10:31:28;;;;;;;3.85;2.30;;;20.90;34.90;;;;;;5009085;28;20416;-60
2020/12/06 10:33:53;;;;;;;3.45;2.10;;;20.90;34.80;;;;;;5008458;28;20412;-59
2020/12/06 10:36:19;;;;;;;2.83;2.00;;;20.90;34.80;;;;;;5010900;28;20416;-59
2020/12/06 10:38:45;;;;;;;3.53;2.03;;;20.90;34.80;;;;;;5010960;28;20415;-59
2020/12/06 10:41:11;;;;;;;2.80;1.90;;;20.90;34.80;;;;;;5011354;28;20468;-59
2020/12/06 10:43:36;;;;;;;2.65;1.90;;;20.90;34.70;;;;;;5010099;28;20420;-59
2020/12/06 10:46:02;;;;;;;2.75;1.90;;;21.00;34.80;;;;;;5011010;28;20806;-60
2020/12/06 10:48:28;;;;;;;2.67;1.70;;;21.00;34.70;;;;;;5011280;28;20411;-59
2020/12/06 10:50:54;;;;;;;2.88;1.75;;;21.00;34.70;;;;;;5011282;28;20421;-59
2020/12/06 10:53:20;;;;;;;3.05;1.98;;;21.00;34.60;;;;;;5009877;28;20392;-59
2020/12/06 10:55:46;;;;;;;2.47;1.77;;;21.00;34.70;;;;;;5011321;28;20393;-59
2020/12/06 10:58:11;;;;;;;2.50;1.80;;;21.00;34.70;;;;;;5010613;28;20381;-59
2020/12/06 11:00:37;;;;;;;2.47;1.70;;;21.00;34.80;;;;;;5010249;28;20408;-59
2020/12/06 11:03:03;;;;;;;2.58;1.70;;;21.00;34.70;;;;;;5011269;28;20923;-59
2020/12/06 11:05:29;;;;;;;2.10;1.60;;;21.10;34.70;;;;;;5011103;28;20393;-59
2020/12/06 11:07:54;;;;;;;2.35;1.60;;;21.10;34.60;;;;;;5010925;28;20745;-60
2020/12/06 11:10:20;;;;;;;2.40;1.60;;;21.10;34.60;;;;;;5010331;28;20421;-59
2020/12/06 11:12:46;;;;;;;1.95;1.50;;;21.10;34.60;;;;;;5011502;28;20384;-59
2020/12/06 11:15:11;;;;;;;1.92;1.38;;;21.10;34.50;;;;;;5011175;28;20399;-59
2020/12/06 11:17:37;;;;;;;2.33;1.50;;;21.10;34.60;;;;;;5011063;28;20385;-59
2020/12/06 11:20:04;;;;;;;2.03;1.33;;;21.10;34.70;;;;;;5010632;28;20463;-59
2020/12/06 11:22:30;;;;;;;1.70;1.33;;;21.10;34.80;;;;;;5010643;28;20400;-59
2020/12/06 11:24:55;;;;;;;1.80;1.30;;;21.10;34.60;;;;;;5010409;28;20901;-59
2020/12/06 11:27:21;;;;;;;1.67;1.20;;;21.10;34.50;;;;;;5010839;28;20380;-59
2020/12/06 11:29:47;;;;;;;2.20;1.45;;;21.10;34.60;;;;;;5010780;28;20873;-59
2020/12/06 11:32:13;;;;;;;1.67;1.20;;;21.10;34.50;;;;;;5010678;28;20383;-59
2020/12/06 11:34:39;;;;;;;1.60;1.20;;;21.10;34.50;;;;;;5014556;28;20407;-59
2020/12/06 11:37:05;;;;;;;1.88;1.13;;;21.10;34.40;;;;;;5014560;28;20393;-59
2020/12/06 11:39:31;;;;;;;1.40;1.20;;;21.10;34.50;;;;;;5014245;28;20804;-59
2020/12/06 11:41:59;;;;;;;1.45;1.10;;;21.10;34.50;;;;;;5014667;28;20396;-59
2020/12/06 11:44:25;;;;;;;2.42;1.25;;;21.00;34.50;;;;;;5013969;28;20377;-61
2020/12/06 11:46:50;;;;;;;2.70;1.48;;;21.00;35.80;;;;;;5013934;28;20390;-59
2020/12/06 11:49:16;;;;;;;3.38;1.27;;;21.00;34.90;;;;;;5013133;28;20921;-59
2020/12/06 11:51:42;;;;;;;7.97;1.73;;;21.00;35.80;;;;;;5012806;28;20423;-59
2020/12/06 11:54:07;;;;;;;6.73;1.80;;;21.00;35.00;;;;;;5012370;28;20389;-59
2020/12/06 11:56:33;;;;;;;6.57;1.65;;;21.10;34.90;;;;;;5012620;28;20397;-59
2020/12/06 11:58:59;;;;;;;4.63;1.60;;;21.10;35.00;;;;;;5012837;28;20385;-58
2020/12/06 12:01:24;;;;;;;6.10;1.60;;;21.10;35.10;;;;;;5012768;28;20940;-59
2020/12/06 12:03:50;;;;;;;6.60;1.37;;;21.20;34.90;;;;;;5012761;28;20401;-67
2020/12/06 12:06:18;;;;;;;7.53;1.80;;;21.20;34.70;;;;;;5012176;28;20487;-59
2020/12/06 12:08:44;;;;;;;8.48;1.98;;;21.20;34.90;;;;;;5012935;28;20487;-59
2020/12/06 12:11:10;;;;;;;7.72;1.75;;;21.20;34.80;;;;;;5028765;28;21016;-63
2020/12/06 12:13:37;;;;;;;5.82;1.90;;;21.20;35.30;;;;;;5013711;28;20397;-60
2020/12/06 12:16:04;;;;;;;5.10;1.80;;;21.20;35.50;;;;;;5013001;28;20404;-59
2020/12/06 12:18:30;;;;;;;6.43;2.30;;;21.20;35.40;;;;;;5012670;28;20396;-70
2020/12/06 12:20:55;;;;;;;5.75;2.20;;;21.30;35.70;;;;;;5013712;28;20399;-58
2020/12/06 12:23:21;;;;;;;5.03;2.20;;;21.30;35.70;;;;;;5013499;28;20756;-58
2020/12/06 12:25:47;;;;;;;6.10;2.33;;;21.30;35.70;;;;;;5013659;28;20397;-59
2020/12/06 12:28:13;;;;;;;4.53;2.17;;;21.30;35.50;;;;;;5011762;28;20400;-59
2020/12/06 12:30:39;;;;;;;4.43;2.50;;;21.30;35.80;;;;;;5013257;28;20482;-59
2020/12/06 12:33:04;;;;;;;4.95;2.70;;;21.30;36.10;;;;;;5013548;28;20394;-58
2020/12/06 12:35:30;;;;;;;4.07;2.37;;;21.30;36.40;;;;;;5013386;28;20393;-59
2020/12/06 12:37:56;;;;;;;5.65;2.60;;;21.30;36.10;;;;;;5012224;28;20426;-61
2020/12/06 12:40:23;;;;;;;5.22;2.78;;;21.30;36.20;;;;;;5012782;28;20796;-59
2020/12/06 12:42:49;;;;;;;4.25;2.63;;;21.30;36.10;;;;;;5012712;28;20392;-59
2020/12/06 12:45:14;;;;;;;5.73;3.03;;;21.30;36.00;;;;;;5012101;28;20405;-59